Time;durP1;ratioP1;P1;durP2;ratioP2;P2;SDS_P1;SDS_P2;PMS_P1;PMS_P2;Temp;Humidity;BMP_temperature;BMP_pressure;BME280_temperature;BME280_humidity;BME280_pressure;Samples;Min_cycle;Max_cycle;Signal;HPM_P1;HPM_P2
2023/05/10 00:00:09;;;;;;;4.60;2.40;;;;;;;14.06;72.81;99870.84;5105650;29;20030;-71
2023/05/10 00:02:40;;;;;;;4.38;2.40;;;;;;;14.09;73.33;99865.41;5104481;29;20031;-71
2023/05/10 00:05:10;;;;;;;6.30;2.30;;;;;;;14.01;73.09;99872.06;5091938;28;20031;-72
2023/05/10 00:07:44;;;;;;;4.43;2.50;;;;;;;13.96;73.31;99868.88;5101033;28;20651;-71
2023/05/10 00:10:14;;;;;;;3.50;2.50;;;;;;;13.89;73.76;99863.16;5103665;29;20397;-71
2023/05/10 00:12:45;;;;;;;3.45;2.03;;;;;;;13.97;73.19;99850.41;5105390;28;20035;-71
2023/05/10 00:15:15;;;;;;;5.43;1.92;;;;;;;13.97;73.35;99849.53;5103913;28;20047;-71
2023/05/10 00:17:45;;;;;;;5.80;2.50;;;;;;;13.96;73.43;99853.13;5091404;28;20062;-71
2023/05/10 00:20:16;;;;;;;6.03;2.22;;;;;;;13.86;73.99;99851.97;5099746;28;20038;-71
2023/05/10 00:22:46;;;;;;;4.00;2.20;;;;;;;13.94;73.68;99847.94;5105677;28;20595;-71
2023/05/10 00:25:16;;;;;;;6.22;2.53;;;;;;;13.89;73.39;99843.94;5107076;29;20019;-71
2023/05/10 00:27:47;;;;;;;8.05;2.30;;;;;;;13.87;73.91;99840.53;5101063;28;20104;-71
2023/05/10 00:30:18;;;;;;;4.43;2.42;;;;;;;13.89;73.47;99833.41;5102301;28;20493;-71
2023/05/10 00:32:49;;;;;;;6.88;2.40;;;;;;;13.88;73.74;99832.56;5106016;29;20031;-71
2023/05/10 00:35:19;;;;;;;4.93;2.35;;;;;;;13.87;73.85;99828.25;5106153;28;20087;-72
2023/05/10 00:37:50;;;;;;;3.65;2.28;;;;;;;13.89;73.85;99826.38;5101941;28;20034;-71
2023/05/10 00:40:20;;;;;;;3.80;1.90;;;;;;;13.81;74.07;99833.88;5106536;28;20126;-71
2023/05/10 00:42:51;;;;;;;3.45;2.20;;;;;;;13.83;74.02;99828.53;5106171;28;20098;-70
2023/05/10 00:45:21;;;;;;;5.40;2.50;;;;;;;13.87;74.08;99820.38;5108960;28;20086;-71
2023/05/10 00:47:54;;;;;;;4.32;2.33;;;;;;;13.86;73.94;99823.06;5100269;29;20122;-71
2023/05/10 00:50:25;;;;;;;3.90;2.20;;;;;;;13.79;74.09;99819.16;5106947;28;20034;-70
2023/05/10 00:52:57;;;;;;;4.80;2.50;;;;;;;13.85;74.04;99837.16;5107810;29;20408;-71
2023/05/10 00:55:28;;;;;;;4.70;2.35;;;;;;;13.89;74.38;99849.19;5105127;28;20260;-71
2023/05/10 00:57:58;;;;;;;4.50;2.28;;;;;;;13.79;74.13;99834.91;5105209;29;20417;-70
2023/05/10 01:00:29;;;;;;;10.82;2.47;;;;;;;13.80;74.10;99834.81;5101297;28;20024;-71
2023/05/10 01:03:00;;;;;;;4.75;2.40;;;;;;;13.74;74.35;99831.72;5109507;28;20019;-71
2023/05/10 01:05:31;;;;;;;4.70;2.22;;;;;;;13.73;74.26;99836.09;5103887;29;20484;-72
2023/05/10 01:08:02;;;;;;;3.15;1.95;;;;;;;13.74;74.33;99832.53;5106392;28;20438;-71
2023/05/10 01:10:32;;;;;;;5.13;2.40;;;;;;;13.67;74.88;99828.63;5101358;29;20110;-71
2023/05/10 01:13:03;;;;;;;4.63;2.30;;;;;;;13.68;74.47;99835.56;5105687;29;20119;-71
2023/05/10 01:15:33;;;;;;;4.15;2.30;;;;;;;13.67;74.23;99825.97;5102031;28;20035;-71
2023/05/10 01:18:04;;;;;;;6.47;2.30;;;;;;;13.64;74.72;99826.16;5100270;29;20027;-71
2023/05/10 01:20:43;;;;;;;3.92;2.15;;;;;;;13.62;74.59;99824.56;5105279;28;20580;-72
2023/05/10 01:23:46;;;;;;;3.90;2.30;;;;;;;13.65;74.74;99825.25;5123058;28;20524;-71
2023/05/10 01:26:16;;;;;;;4.53;2.30;;;;;;;13.64;74.83;99833.19;5103955;29;20478;-71
2023/05/10 01:29:09;;;;;;;7.13;2.50;;;;;;;13.54;74.92;99829.44;5100979;28;20107;-70
2023/05/10 01:32:00;;;;;;;3.60;2.15;;;;;;;13.56;74.64;99838.91;5095400;28;20581;-71
2023/05/10 01:34:52;;;;;;;7.13;2.72;;;;;;;13.60;74.63;99834.31;5106453;29;20035;-71
2023/05/10 01:37:33;;;;;;;4.22;2.10;;;;;;;13.50;74.83;99838.41;5110816;28;20565;-70
2023/05/10 01:40:30;;;;;;;5.00;2.33;;;;;;;13.50;74.93;99827.91;5109341;28;20034;-71
2023/05/10 01:43:03;;;;;;;6.10;2.28;;;;;;;13.45;75.02;99827.34;5114318;28;20070;-70
2023/05/10 01:45:39;;;;;;;5.95;2.35;;;;;;;13.40;75.47;99832.88;5108153;28;20756;-71
2023/05/10 01:48:10;;;;;;;3.63;2.22;;;;;;;13.37;75.64;99832.22;5112826;29;20039;-71
2023/05/10 01:50:45;;;;;;;4.65;2.20;;;;;;;13.34;75.90;99830.59;5111285;28;20023;-72
2023/05/10 01:53:19;;;;;;;4.15;2.63;;;;;;;13.32;76.03;99826.38;5115419;29;20019;-73
2023/05/10 01:55:53;;;;;;;5.70;2.53;;;;;;;13.24;76.10;99812.88;5113369;29;20122;-72
2023/05/10 01:58:28;;;;;;;3.65;2.10;;;;;;;13.28;76.07;99820.47;5111078;28;20027;-72
2023/05/10 02:01:01;;;;;;;4.75;2.33;;;;;;;13.20;76.17;99825.31;5111010;29;20046;-71
2023/05/10 02:03:35;;;;;;;7.63;2.95;;;;;;;13.24;76.25;99820.75;5111584;29;20190;-73
2023/05/10 02:06:07;;;;;;;3.20;1.85;;;;;;;13.21;76.77;99826.16;5112234;29;20031;-72
2023/05/10 02:08:39;;;;;;;4.45;2.10;;;;;;;13.19;76.67;99828.88;5111521;29;20035;-71
2023/05/10 02:11:13;;;;;;;4.45;2.20;;;;;;;13.20;76.69;99829.72;5108315;29;20231;-72
2023/05/10 02:13:47;;;;;;;4.28;2.42;;;;;;;13.12;77.53;99832.78;5111585;28;20338;-72
2023/05/10 02:16:22;;;;;;;3.95;2.15;;;;;;;13.14;77.17;99838.78;5114451;28;20484;-72
2023/05/10 02:18:54;;;;;;;4.05;2.25;;;;;;;13.05;77.23;99835.84;5111144;28;20590;-73
2023/05/10 02:21:25;;;;;;;4.32;2.25;;;;;;;13.01;77.78;99829.06;5115013;28;20026;-73
2023/05/10 02:23:58;;;;;;;3.25;2.33;;;;;;;13.01;77.71;99836.94;5123960;28;20027;-73
2023/05/10 02:26:31;;;;;;;4.15;2.22;;;;;;;13.06;77.48;99837.53;5111314;28;20035;-72
2023/05/10 02:29:06;;;;;;;4.20;2.45;;;;;;;13.01;77.91;99836.94;5108975;28;20118;-73
2023/05/10 02:31:38;;;;;;;5.03;2.63;;;;;;;13.08;77.58;99827.81;5104662;28;20431;-73
2023/05/10 02:34:10;;;;;;;4.00;2.40;;;;;;;13.12;78.04;99832.78;5109034;28;20043;-72
2023/05/10 02:36:42;;;;;;;3.92;2.45;;;;;;;13.04;77.44;99823.69;5113712;28;20027;-73
2023/05/10 02:39:14;;;;;;;4.80;2.30;;;;;;;13.13;77.49;99826.63;5110886;28;20066;-72
2023/05/10 02:41:46;;;;;;;5.40;2.38;;;;;;;13.05;77.11;99828.81;5111623;28;20358;-72
2023/05/10 02:44:19;;;;;;;4.72;2.53;;;;;;;13.00;77.74;99827.38;5112660;28;20070;-72
2023/05/10 02:46:49;;;;;;;4.05;1.98;;;;;;;13.01;77.63;99823.81;5109791;28;20044;-73
2023/05/10 02:49:20;;;;;;;5.20;2.25;;;;;;;13.11;77.23;99831.09;5111129;28;20074;-73
2023/05/10 02:51:58;;;;;;;4.97;2.50;;;;;;;13.11;77.29;99822.38;5109512;28;20028;-72
2023/05/10 02:54:32;;;;;;;6.47;2.25;;;;;;;13.14;77.36;99824.81;5102563;28;20500;-72
2023/05/10 02:57:05;;;;;;;3.50;2.47;;;;;;;13.03;77.73;99822.00;5107720;29;20059;-72
2023/05/10 02:59:38;;;;;;;5.93;2.78;;;;;;;13.04;78.11;99823.69;5152963;23;20426;-90
2023/05/10 03:02:10;;;;;;;4.82;2.72;;;;;;;13.02;78.33;99820.25;5125542;28;20063;-92
2023/05/10 03:04:43;;;;;;;6.03;2.88;;;;;;;12.97;77.81;99819.69;5131279;28;20035;-91
2023/05/10 03:07:14;;;;;;;4.53;2.58;;;;;;;12.94;78.41;99812.00;5126858;28;20019;-91
2023/05/10 03:09:47;;;;;;;8.02;2.80;;;;;;;12.89;78.70;99811.41;5134570;28;20081;-91
2023/05/10 03:12:28;;;;;;;4.55;2.30;;;;;;;12.89;78.70;99821.88;5122577;28;20022;-91
2023/05/10 03:15:39;;;;;;;4.32;2.20;;;;;;;12.91;79.20;99814.78;5130738;28;20099;-92
2023/05/10 03:18:18;;;;;;;8.15;2.60;;;;;;;12.86;79.00;99818.59;5139472;28;20035;-91
2023/05/10 03:20:55;;;;;;;6.13;2.60;;;;;;;12.79;79.81;99822.50;5128247;28;20035;-91
2023/05/10 03:23:53;;;;;;;3.88;2.30;;;;;;;12.83;79.27;99818.78;5128065;28;20393;-92
2023/05/10 03:26:26;;;;;;;4.40;2.53;;;;;;;12.78;79.97;99826.06;5147514;28;20050;-90
2023/05/10 03:29:02;;;;;;;5.55;2.72;;;;;;;12.83;79.85;99827.47;5127014;28;20034;-91
2023/05/10 03:31:35;;;;;;;6.97;2.90;;;;;;;12.85;80.26;99822.97;5142489;28;20027;-92
2023/05/10 03:34:19;;;;;;;4.88;2.70;;;;;;;12.81;81.16;99818.84;5125639;28;20040;-92
2023/05/10 03:36:52;;;;;;;4.10;2.47;;;;;;;12.73;81.02;99821.06;5132135;28;20027;-93
2023/05/10 03:39:25;;;;;;;5.00;2.78;;;;;;;12.65;81.55;99823.25;5121916;28;20586;-91
2023/05/10 03:41:58;;;;;;;4.18;2.35;;;;;;;12.57;81.66;99828.09;5131535;28;20434;-92
2023/05/10 03:44:33;;;;;;;6.18;2.65;;;;;;;12.58;82.18;99819.28;5149400;28;20027;-91
2023/05/10 03:47:05;;;;;;;4.60;2.88;;;;;;;12.49;82.09;99824.22;5146344;28;20030;-91
2023/05/10 03:49:38;;;;;;;7.70;2.72;;;;;;;12.56;82.60;99822.94;5116806;28;20037;-91
2023/05/10 03:52:08;;;;;;;5.43;2.80;;;;;;;12.53;81.88;99823.09;5126222;28;20023;-91
2023/05/10 03:54:39;;;;;;;4.60;2.83;;;;;;;12.64;82.82;99826.81;5146692;28;20045;-90
2023/05/10 03:57:09;;;;;;;5.95;3.17;;;;;;;12.47;82.66;99826.06;5130289;28;20126;-88
2023/05/10 03:59:40;;;;;;;5.60;3.15;;;;;;;12.44;83.90;99824.44;5131063;28;20041;-90
2023/05/10 04:02:10;;;;;;;7.80;3.25;;;;;;;12.63;83.30;99827.75;5129190;28;20605;-90
2023/05/10 04:04:41;;;;;;;5.03;2.72;;;;;;;12.59;83.52;99820.97;5129364;28;20030;-91
2023/05/10 04:07:14;;;;;;;4.93;2.92;;;;;;;12.56;83.49;99820.31;5129530;28;20042;-90
2023/05/10 04:09:47;;;;;;;6.93;3.58;;;;;;;12.62;82.83;99826.06;5124974;28;20026;-91
2023/05/10 04:12:17;;;;;;;5.75;2.92;;;;;;;12.72;83.73;99822.00;5129703;28;20517;-91
2023/05/10 04:14:47;;;;;;;10.38;3.20;;;;;;;12.62;83.77;99825.22;5131601;28;20122;-92
2023/05/10 04:17:18;;;;;;;7.10;3.10;;;;;;;12.59;84.18;99825.38;5128338;28;20022;-90
2023/05/10 04:19:58;;;;;;;5.40;2.95;;;;;;;12.71;84.09;99816.81;5131199;28;20094;-91
2023/05/10 04:22:31;;;;;;;5.32;2.97;;;;;;;12.67;84.73;99818.78;5129286;28;20019;-91
2023/05/10 04:25:04;;;;;;;4.68;2.80;;;;;;;12.78;84.65;99821.63;5133554;28;20023;-90
2023/05/10 04:27:37;;;;;;;5.30;3.10;;;;;;;12.88;84.08;99816.72;5137230;28;20027;-92
2023/05/10 04:30:08;;;;;;;5.35;3.03;;;;;;;12.81;84.29;99826.72;5127666;28;20030;-92
2023/05/10 04:32:41;;;;;;;6.07;3.00;;;;;;;12.80;84.82;99813.69;5128473;28;20082;-91
2023/05/10 04:35:11;;;;;;;5.25;2.90;;;;;;;12.75;85.18;99826.22;5128375;28;20031;-92
2023/05/10 04:37:43;;;;;;;5.15;3.00;;;;;;;12.74;84.81;99825.38;5121435;28;20031;-91
2023/05/10 04:40:13;;;;;;;6.38;3.20;;;;;;;12.77;85.26;99825.19;5119892;28;20628;-91
2023/05/10 04:42:46;;;;;;;5.53;3.15;;;;;;;12.59;85.77;99833.22;5129841;28;20030;-91
2023/05/10 04:45:19;;;;;;;5.13;2.90;;;;;;;12.70;85.91;99829.09;5127144;28;20031;-91
2023/05/10 04:47:51;;;;;;;5.07;3.03;;;;;;;12.57;85.39;99830.72;5129477;28;20033;-90
2023/05/10 04:50:22;;;;;;;5.30;2.85;;;;;;;12.53;85.51;99836.19;5134872;28;20035;-90
2023/05/10 04:52:52;;;;;;;4.88;3.10;;;;;;;12.62;85.17;99830.47;5117426;28;20086;-91
2023/05/10 04:55:23;;;;;;;6.45;3.50;;;;;;;12.69;85.25;99842.28;5131262;28;20471;-91
2023/05/10 04:57:57;;;;;;;5.30;2.90;;;;;;;12.62;86.23;99841.78;5121705;28;20048;-91
2023/05/10 05:00:31;;;;;;;10.02;3.28;;;;;;;12.56;86.84;99843.88;5117164;28;20525;-90
2023/05/10 05:03:07;;;;;;;5.03;3.15;;;;;;;12.69;86.44;99842.28;5128726;28;20023;-91
2023/05/10 05:05:40;;;;;;;4.22;2.63;;;;;;;12.52;86.52;99840.63;5121466;28;20583;-92
2023/05/10 05:08:12;;;;;;;5.97;3.40;;;;;;;12.51;86.72;99854.66;5123472;28;20032;-91
2023/05/10 05:10:47;;;;;;;6.22;2.67;;;;;;;12.55;87.01;99850.94;5124211;28;20022;-92
2023/05/10 05:13:20;;;;;;;4.53;3.05;;;;;;;12.52;86.23;99856.34;5125946;28;20035;-90
2023/05/10 05:15:51;;;;;;;6.78;3.25;;;;;;;12.49;87.14;99866.97;5147205;28;20031;-91
2023/05/10 05:18:21;;;;;;;6.43;2.90;;;;;;;12.51;87.93;99862.50;5131324;28;20031;-91
2023/05/10 05:20:52;;;;;;;5.10;3.20;;;;;;;12.43;86.69;99858.63;5133854;28;20026;-91
2023/05/10 05:23:27;;;;;;;5.22;2.90;;;;;;;12.36;87.89;99867.72;5140578;28;20027;-90
2023/05/10 05:26:00;;;;;;;7.57;3.10;;;;;;;12.41;87.10;99856.06;5125695;28;20102;-91
2023/05/10 05:28:36;;;;;;;5.38;3.30;;;;;;;12.34;87.73;99862.59;5131341;28;20031;-90
2023/05/10 05:31:10;;;;;;;9.93;3.13;;;;;;;12.46;87.25;99859.28;5132946;28;20069;-91
2023/05/10 05:33:40;;;;;;;4.93;3.15;;;;;;;12.49;87.58;99860.91;5129984;28;20482;-92
2023/05/10 05:36:10;;;;;;;5.85;2.95;;;;;;;12.57;88.35;99875.28;5128234;28;20035;-92
2023/05/10 05:39:03;;;;;;;5.70;3.10;;;;;;;12.58;88.54;99878.72;5126441;28;20046;-93
2023/05/10 05:41:36;;;;;;;6.00;3.05;;;;;;;12.62;88.62;99878.47;5132707;28;20226;-90
2023/05/10 05:44:06;;;;;;;5.35;3.17;;;;;;;12.49;89.02;99872.22;5125566;28;20113;-90
2023/05/10 05:46:39;;;;;;;10.73;3.25;;;;;;;12.37;89.03;99872.91;5141923;28;20115;-91
2023/05/10 05:49:27;;;;;;;6.28;3.05;;;;;;;12.55;89.19;99877.13;5116432;28;20049;-92
2023/05/10 05:52:10;;;;;;;5.30;3.15;;;;;;;12.65;88.96;99875.69;5117885;28;20023;-92
2023/05/10 05:54:43;;;;;;;5.15;3.10;;;;;;;12.80;88.96;99876.63;5132810;28;20033;-92
2023/05/10 05:57:16;;;;;;;5.10;3.15;;;;;;;12.86;89.10;99887.63;5132131;28;20023;-94
2023/05/10 06:00:15;;;;;;;8.50;3.40;;;;;;;12.88;90.58;99871.78;5122406;28;20035;-92
2023/05/10 06:03:11;;;;;;;7.95;3.40;;;;;;;12.84;90.74;99884.22;5122971;28;20042;-90
2023/05/10 06:05:41;;;;;;;4.20;2.88;;;;;;;12.88;89.58;99878.72;5119498;28;20565;-92
2023/05/10 06:08:14;;;;;;;9.15;3.00;;;;;;;12.89;90.92;99872.53;5126606;28;20031;-91
2023/05/10 06:10:49;;;;;;;5.82;3.50;;;;;;;12.99;90.89;99889.50;5137673;28;20050;-92
2023/05/10 06:13:20;;;;;;;6.22;3.50;;;;;;;13.04;92.68;99884.00;5120834;28;20060;-92
2023/05/10 06:15:52;;;;;;;5.65;3.63;;;;;;;13.01;92.21;99881.53;5127389;28;20034;-92
2023/05/10 06:18:30;;;;;;;7.20;3.65;;;;;;;13.02;93.73;99889.34;5125734;28;20034;-93
2023/05/10 06:21:03;;;;;;;5.97;3.65;;;;;;;13.06;94.19;99885.59;5132200;28;20097;-91
2023/05/10 06:23:34;;;;;;;6.90;3.67;;;;;;;13.23;93.27;99889.91;5128528;28;20018;-91
2023/05/10 06:26:04;;;;;;;8.18;3.63;;;;;;;13.43;92.90;99890.41;5143432;28;20694;-91
2023/05/10 06:28:43;;;;;;;8.38;3.80;;;;;;;13.59;92.67;99893.03;5139083;28;20363;-90
2023/05/10 06:31:13;;;;;;;9.77;3.42;;;;;;;13.72;92.61;99894.81;5127928;28;20023;-90
2023/05/10 06:33:46;;;;;;;8.10;3.90;;;;;;;13.69;92.18;99896.78;5126867;28;20034;-91
2023/05/10 06:36:19;;;;;;;5.68;3.45;;;;;;;13.61;92.14;99897.22;5126707;28;20034;-92
2023/05/10 06:38:52;;;;;;;8.45;3.85;;;;;;;13.66;93.10;99897.81;5132899;28;20031;-93
2023/05/10 06:41:23;;;;;;;7.05;3.80;;;;;;;13.57;91.84;99908.03;5132826;28;20062;-92
2023/05/10 06:43:56;;;;;;;5.30;3.28;;;;;;;13.44;93.35;99907.03;5129800;28;20379;-92
2023/05/10 06:46:29;;;;;;;6.68;3.58;;;;;;;13.28;93.88;99906.22;5128769;28;20394;-91
2023/05/10 06:49:04;;;;;;;6.20;3.20;;;;;;;13.30;94.76;99909.59;5133917;28;20085;-92
2023/05/10 06:51:34;;;;;;;6.38;3.65;;;;;;;13.44;95.18;99918.34;5130500;28;20031;-91
2023/05/10 06:54:12;;;;;;;5.20;3.28;;;;;;;13.45;98.09;99924.47;5134538;28;20031;-92
2023/05/10 06:56:43;;;;;;;6.65;3.92;;;;;;;13.52;100.00;99926.66;5119467;28;20039;-91
2023/05/10 06:59:13;;;;;;;6.07;3.78;;;;;;;13.26;100.00;99929.09;5129659;28;20031;-93
2023/05/10 07:01:47;;;;;;;4.93;3.25;;;;;;;13.38;100.00;99941.50;5126793;28;20026;-91
2023/05/10 07:04:24;;;;;;;7.63;3.85;;;;;;;13.25;100.00;99938.72;5136105;28;20024;-92
2023/05/10 07:06:55;;;;;;;8.27;3.65;;;;;;;13.29;100.00;99940.25;5128947;28;20035;-92
2023/05/10 07:09:28;;;;;;;8.57;4.20;;;;;;;13.22;100.00;99935.44;5133842;28;20031;-90
2023/05/10 07:12:08;;;;;;;6.00;3.45;;;;;;;13.32;100.00;99949.72;5132876;28;20033;-92
2023/05/10 07:14:41;;;;;;;5.95;3.67;;;;;;;13.34;100.00;99948.72;5130436;28;20030;-91
2023/05/10 07:17:22;;;;;;;;;;;;;;;;;;;;;
2023/05/10 07:19:58;;;;;;;7.40;4.20;;;;;;;13.22;100.00;99951.19;5132162;28;20561;-92
2023/05/10 07:22:38;;;;;;;8.38;4.18;;;;;;;13.43;100.00;99955.22;5130249;28;20023;-92
2023/05/10 07:25:20;;;;;;;8.27;4.47;;;;;;;13.48;100.00;99972.41;5149686;28;20046;-91
2023/05/10 07:27:53;;;;;;;8.68;4.20;;;;;;;13.42;100.00;99972.72;5119129;28;20118;-92
2023/05/10 07:30:28;;;;;;;7.10;4.22;;;;;;;13.50;100.00;99961.78;5131060;28;20503;-92
2023/05/10 07:32:59;;;;;;;7.25;4.15;;;;;;;13.68;100.00;99969.47;5127222;28;20027;-92
2023/05/10 07:35:34;;;;;;;6.93;4.13;;;;;;;13.68;100.00;99977.34;5128021;28;20039;-92
2023/05/10 07:38:14;;;;;;;6.22;3.97;;;;;;;13.50;100.00;99974.91;5136502;28;20018;-92
2023/05/10 07:40:44;;;;;;;9.50;4.30;;;;;;;13.49;100.00;99967.97;5127724;28;20058;-92
2023/05/10 07:43:17;;;;;;;6.53;4.25;;;;;;;13.64;100.00;99977.59;5137399;28;20509;-93
2023/05/10 07:45:52;;;;;;;7.95;4.60;;;;;;;13.76;100.00;99977.75;5113532;28;20028;-94
2023/05/10 07:48:35;;;;;;;7.35;4.35;;;;;;;13.85;100.00;99971.09;5150316;28;20038;-93
2023/05/10 07:51:07;;;;;;;7.95;4.25;;;;;;;13.91;100.00;99976.84;5128720;28;20107;-92
2023/05/10 07:53:55;;;;;;;;;;;;;;;;;;;;;
2023/05/10 07:56:31;;;;;;;6.50;4.15;;;;;;;13.76;100.00;99971.66;5123836;28;20110;-92
2023/05/10 07:59:06;;;;;;;9.65;4.85;;;;;;;13.84;100.00;99965.03;5135693;28;20030;-91
2023/05/10 08:01:39;;;;;;;8.00;4.28;;;;;;;13.90;100.00;99963.81;5131116;28;20042;-92
2023/05/10 08:04:10;;;;;;;8.98;4.55;;;;;;;14.07;100.00;99961.88;5143723;28;20026;-93
2023/05/10 08:14:32;;;;;;;6.38;3.70;;;;;;;14.49;100.00;99980.38;5131258;28;20046;-93
2023/05/10 08:32:15;;;;;;;;;;;;;;;;;;;;;
2023/05/10 08:42:40;;;;;;;;;;;;;;;;;;;;;
2023/05/10 08:55:43;;;;;;;;;;;;;;;;;;;;;
2023/05/10 08:59:13;;;;;;;;;;;;;;;;;;;;;
2023/05/10 09:01:50;;;;;;;9.88;4.97;;;;;;;14.58;100.00;100052.59;5127930;28;20093;-95
2023/05/10 09:04:45;;;;;;;9.75;4.57;;;;;;;14.47;100.00;100055.03;5122283;28;20023;-93
2023/05/10 09:07:21;;;;;;;7.60;4.72;;;;;;;14.48;100.00;100052.31;5127523;28;20031;-93
2023/05/10 09:13:26;;;;;;;6.40;4.47;;;;;;;14.93;100.00;100065.28;5129821;28;20031;-93
2023/05/10 09:19:38;;;;;;;7.18;4.57;;;;;;;15.10;100.00;100068.59;5127382;28;20046;-94
2023/05/10 09:22:45;;;;;;;;;;;;;;;;;;;;;
2023/05/10 09:25:43;;;;;;;7.28;4.43;;;;;;;15.07;100.00;100067.94;5125331;28;20636;-93
2023/05/10 09:28:31;;;;;;;;;;;;;;;;;;;;;
2023/05/10 09:31:19;;;;;;;;;;;;;;;;;;;;;
2023/05/10 09:34:01;;;;;;;7.07;4.82;;;;;;;15.20;100.00;100077.59;5122721;28;20050;-92
2023/05/10 09:37:07;;;;;;;7.57;4.45;;;;;;;15.32;100.00;100079.50;5118876;28;20046;-92
2023/05/10 09:43:52;;;;;;;7.20;4.57;;;;;;;15.56;100.00;100093.75;5132502;28;20037;-93
2023/05/10 09:46:38;;;;;;;;;;;;;;;;;;;;;
2023/05/10 09:49:17;;;;;;;9.45;4.30;;;;;;;15.72;100.00;100088.38;5125114;28;20121;-93
2023/05/10 09:52:37;;;;;;;;;;;;;;;;;;;;;
2023/05/10 09:58:14;;;;;;;;;;;;;;;;;;;;;
2023/05/10 10:00:56;;;;;;;8.07;3.60;;;;;;;15.69;100.00;100102.56;5122429;28;20121;-93
2023/05/10 10:07:06;;;;;;;6.20;3.03;;;;;;;15.50;100.00;100112.59;5130034;28;20028;-93
2023/05/10 10:10:12;;;;;;;7.03;2.70;;;;;;;15.63;100.00;100115.28;5141526;28;20109;-93
2023/05/10 10:12:52;;;;;;;;;;;;;;;;;;;;;
2023/05/10 10:15:40;;;;;;;4.07;2.38;;;;;;;15.60;100.00;100121.63;5116885;28;20117;-93
2023/05/10 10:18:34;;;;;;;3.30;2.00;;;;;;;15.76;100.00;100122.34;5138324;28;20023;-93
2023/05/10 10:21:22;;;;;;;;;;;;;;;;;;;;;
2023/05/10 10:24:01;;;;;;;3.95;1.40;;;;;;;15.78;100.00;100119.59;5129705;28;20027;-92
2023/05/10 10:26:39;;;;;;;1.60;0.80;;;;;;;15.76;100.00;100121.47;5132925;28;20027;-92
2023/05/10 10:29:32;;;;;;;1.77;0.90;;;;;;;15.51;100.00;100130.09;5128331;28;20055;-93
2023/05/10 10:32:12;;;;;;;2.60;0.90;;;;;;;15.49;100.00;100131.97;5131128;28;20130;-93
2023/05/10 10:35:05;;;;;;;1.70;0.63;;;;;;;15.39;100.00;100136.09;5131343;28;20023;-93
2023/05/10 10:38:07;;;;;;;1.10;0.60;;;;;;;15.40;100.00;100142.22;5138529;28;20121;-93
2023/05/10 10:40:38;;;;;;;1.27;0.55;;;;;;;15.40;100.00;100139.59;5136989;28;20047;-92
2023/05/10 10:43:53;;;;;;;;;;;;;;;;;;;;;
2023/05/10 10:47:12;;;;;;;0.77;0.60;;;;;;;15.47;100.00;100141.75;5128596;28;20029;-93
2023/05/10 10:50:29;;;;;;;;;;;;;;;;;;;;;
2023/05/10 10:53:13;;;;;;;0.60;0.50;;;;;;;15.73;100.00;100148.03;5127358;28;20078;-93
2023/05/10 10:56:15;;;;;;;;;;;;;;;;;;;;;
2023/05/10 11:04:42;;;;;;;1.20;0.70;;;;;;;15.77;100.00;100153.00;5138579;28;20089;-77
2023/05/10 11:07:17;;;;;;;1.15;0.70;;;;;;;15.67;100.00;100161.59;5140108;28;20057;-73
2023/05/10 11:09:47;;;;;;;0.85;0.70;;;;;;;15.69;100.00;100155.25;5142150;28;20213;-75
2023/05/10 11:12:18;;;;;;;1.77;0.80;;;;;;;15.71;100.00;100161.28;5146175;28;20027;-77
2023/05/10 11:14:51;;;;;;;1.90;0.70;;;;;;;15.47;100.00;100161.97;5149063;28;20121;-73
2023/05/10 11:17:27;;;;;;;1.33;0.70;;;;;;;15.50;100.00;100167.06;5162360;23;20109;-72
2023/05/10 11:20:10;;;;;;;0.63;0.50;;;;;;;15.60;100.00;100166.41;5148609;28;20388;-72
2023/05/10 11:22:53;;;;;;;0.57;0.50;;;;;;;15.56;100.00;100178.03;5143904;28;20052;-72
2023/05/10 11:25:27;;;;;;;1.05;0.50;;;;;;;15.49;100.00;100168.84;5147793;28;20030;-73
2023/05/10 11:28:04;;;;;;;1.05;0.60;;;;;;;15.73;100.00;100174.38;5145254;28;20026;-71
2023/05/10 11:30:35;;;;;;;3.05;0.65;;;;;;;15.64;100.00;100174.94;5147823;28;20038;-73
2023/05/10 11:33:06;;;;;;;2.30;0.60;;;;;;;15.47;100.00;100170.72;5146955;28;20409;-71
2023/05/10 11:35:40;;;;;;;1.55;0.60;;;;;;;15.73;100.00;100167.28;5148723;28;20034;-73
2023/05/10 11:38:12;;;;;;;1.35;0.60;;;;;;;15.84;100.00;100178.03;5141863;28;20068;-72
2023/05/10 11:40:43;;;;;;;1.20;0.70;;;;;;;15.92;100.00;100185.44;5146087;28;20509;-73
2023/05/10 11:43:13;;;;;;;1.60;0.68;;;;;;;16.16;100.00;100179.44;5148916;28;20045;-71
2023/05/10 11:45:45;;;;;;;0.60;0.47;;;;;;;16.24;100.00;100179.78;5144033;28;20089;-72
2023/05/10 11:48:16;;;;;;;0.73;0.50;;;;;;;16.10;100.00;100186.91;5143609;28;20084;-72
2023/05/10 11:50:46;;;;;;;1.35;0.70;;;;;;;16.00;100.00;100180.50;5137652;28;20090;-73
2023/05/10 11:53:19;;;;;;;0.82;0.60;;;;;;;15.92;100.00;100190.72;5132839;28;20023;-73
2023/05/10 11:55:50;;;;;;;0.73;0.40;;;;;;;15.93;100.00;100187.13;5140264;28;20050;-72
2023/05/10 11:58:21;;;;;;;2.45;0.40;;;;;;;15.96;100.00;100189.56;5137844;28;20138;-72
2023/05/10 12:00:51;;;;;;;0.75;0.60;;;;;;;16.00;100.00;100197.19;5137275;28;20053;-74
2023/05/10 12:03:21;;;;;;;0.73;0.50;;;;;;;16.39;100.00;100186.75;5160796;28;20034;-72
2023/05/10 12:05:52;;;;;;;1.45;0.60;;;;;;;16.37;100.00;100188.63;5146989;28;20030;-71
2023/05/10 12:08:24;;;;;;;0.80;0.57;;;;;;;16.34;100.00;100198.50;5141552;28;20030;-71
2023/05/10 12:11:15;;;;;;;0.90;0.60;;;;;;;16.51;100.00;100195.63;5145274;28;20035;-73
2023/05/10 12:13:49;;;;;;;1.85;0.90;;;;;;;16.71;100.00;100196.03;5147792;28;20039;-72
2023/05/10 12:16:21;;;;;;;0.90;0.70;;;;;;;16.62;100.00;100207.19;5143388;28;20121;-72
2023/05/10 12:18:56;;;;;;;0.70;0.43;;;;;;;16.48;100.00;100206.41;5146706;28;20104;-71
2023/05/10 12:21:28;;;;;;;1.30;0.63;;;;;;;16.72;100.00;100200.34;5142613;28;20038;-73
2023/05/10 12:24:01;;;;;;;2.03;0.57;;;;;;;17.00;100.00;100200.19;5145451;28;20300;-73
2023/05/10 12:26:32;;;;;;;1.33;0.50;;;;;;;16.97;100.00;100200.41;5149133;28;20480;-71
2023/05/10 12:29:16;;;;;;;1.33;0.70;;;;;;;16.71;100.00;100203.94;5143335;28;20041;-72
2023/05/10 12:31:57;;;;;;;1.10;0.60;;;;;;;17.00;100.00;100195.75;5147079;28;20062;-72
2023/05/10 12:34:32;;;;;;;0.77;0.60;;;;;;;16.97;100.00;100203.88;5148220;28;20062;-73
2023/05/10 12:37:03;;;;;;;0.82;0.55;;;;;;;17.43;100.00;100201.59;5145567;28;20073;-72
2023/05/10 12:39:41;;;;;;;0.88;0.57;;;;;;;17.70;100.00;100197.06;5149003;28;20054;-72
2023/05/10 12:42:12;;;;;;;1.42;0.70;;;;;;;17.27;100.00;100208.88;5143111;28;20029;-73
2023/05/10 12:44:42;;;;;;;1.95;0.85;;;;;;;17.55;100.00;100206.91;5147750;28;20031;-73
2023/05/10 12:47:12;;;;;;;2.65;0.68;;;;;;;17.63;100.00;100203.72;5147625;28;20472;-72
2023/05/10 12:49:43;;;;;;;0.63;0.50;;;;;;;18.01;100.00;100205.31;5145603;28;20077;-73
2023/05/10 12:52:13;;;;;;;0.88;0.60;;;;;;;17.81;100.00;100211.19;5147270;28;20026;-72
2023/05/10 12:54:43;;;;;;;1.17;0.80;;;;;;;17.73;100.00;100212.69;5147676;28;20030;-72
2023/05/10 12:57:14;;;;;;;1.10;0.70;;;;;;;17.95;100.00;100216.34;5140576;28;20065;-72
2023/05/10 12:59:44;;;;;;;1.88;0.57;;;;;;;18.16;100.00;100211.34;5142202;28;20423;-72
2023/05/10 13:02:15;;;;;;;1.25;0.55;;;;;;;18.24;100.00;100216.91;5150077;28;20030;-71
2023/05/10 13:04:46;;;;;;;4.00;0.70;;;;;;;18.26;97.76;100209.69;5145275;28;20113;-73
2023/05/10 13:07:16;;;;;;;2.28;0.70;;;;;;;18.01;98.18;100218.56;5145907;28;20022;-72
2023/05/10 13:09:46;;;;;;;1.35;0.60;;;;;;;18.28;100.00;100205.16;5148647;28;20438;-71
2023/05/10 13:12:17;;;;;;;1.13;0.68;;;;;;;18.30;99.00;100221.78;5144702;28;20023;-73
2023/05/10 13:14:47;;;;;;;1.48;0.70;;;;;;;18.57;100.00;100222.41;5145952;28;20427;-73
2023/05/10 13:17:17;;;;;;;0.90;0.60;;;;;;;18.84;98.96;100222.06;5139284;28;20026;-74
2023/05/10 13:19:48;;;;;;;0.73;0.50;;;;;;;18.65;95.27;100220.88;5148604;28;20563;-72
2023/05/10 13:22:18;;;;;;;1.80;0.55;;;;;;;18.83;95.65;100215.06;5141520;28;20270;-74
2023/05/10 13:24:48;;;;;;;2.40;0.80;;;;;;;18.92;97.53;100213.53;5146238;28;20055;-72
2023/05/10 13:27:18;;;;;;;1.02;0.60;;;;;;;18.81;96.83;100219.66;5151582;28;20027;-73
2023/05/10 13:29:49;;;;;;;1.38;0.70;;;;;;;18.70;95.00;100212.63;5148707;28;20034;-72
2023/05/10 13:32:19;;;;;;;1.30;0.65;;;;;;;18.48;90.92;100213.34;5148157;28;20026;-73
2023/05/10 13:34:49;;;;;;;1.83;0.73;;;;;;;18.50;93.39;100213.25;5144632;28;20066;-72